Stations météo

réclame
Mon MeteoGroup
Falsterbo A, Suède (2615): Température de l'air & dewpoint: 15.01.2019 17:00:00 - 21.01.2019 17:00:00 (CET)Falsterbo A, Suède (2615): Vitesse du vent & gusts: 15.01.2019 17:00:00 - 21.01.2019 17:00:00 (CET)Falsterbo A, Suède (2615): Direction du vent: 15.01.2019 17:00:00 - 21.01.2019 17:00:00 (CET)Falsterbo A, Suède (2615): reduced air pressure: 15.01.2019 17:00:00 - 21.01.2019 17:00:00 (CET)Falsterbo A, Suède (2615): Quantités de précipitations: 15.01.2019 17:00:00 - 21.01.2019 17:00:00 (CET)
Date & Time tt [°C] td [°C] ff [km/h] ff [knt] fx [km/h] fx [knt] dd ppp [hPa] rr [mm]
21.01.2019 17:00:00 - - - - - - - - -
21.01.2019 16:00:00 1,2 0,8 42 23 53 28 SW 1012,3 3,7
21.01.2019 15:00:00 1,6 1,0 37 20 51 28 WSW 1013,2 0,2
21.01.2019 14:00:00 1,2 - 41 22 51 28 WSW 1014,0 0,3
21.01.2019 13:00:00 0,5 -0,2 41 22 51 28 WSW 1014,7 0,0
21.01.2019 12:00:00 -0,1 -0,9 41 22 49 27 WSW 1015,4 0,5
21.01.2019 11:00:00 -0,6 -1,6 38 21 48 26 WSW 1016,4 0,5
21.01.2019 10:00:00 0,3 -4,2 37 20 48 26 WSW 1016,9 0,0
21.01.2019 09:00:00 0,7 -3,4 - - 44 24 - 1017,5 0,0
21.01.2019 08:00:00 1,3 -3,0 35 19 42 23 SW 1017,5 0,0
21.01.2019 07:00:00 1,1 -2,0 30 16 38 20 SW 1017,9 0,0
21.01.2019 06:00:00 1,4 -1,5 29 16 39 21 WSW 1018,4 0,0
21.01.2019 05:00:00 1,7 -1,4 31 17 39 21 WSW 1018,9 0,0
21.01.2019 04:00:00 1,7 -0,9 32 18 38 20 WSW 1019,3 0,0
21.01.2019 03:00:00 1,5 -0,6 29 16 37 20 WSW 1019,8 0,0
21.01.2019 02:00:00 1,4 -0,7 28 15 37 20 WSW 1020,3 0,0
21.01.2019 01:00:00 1,2 -0,9 29 16 35 19 WSW 1020,5 0,0
21.01.2019 00:00:00 0,6 -1,6 26 14 32 18 WSW 1020,9 0,0
20.01.2019 23:00:00 0,4 -1,7 23 13 32 18 W 1020,8 0,0
20.01.2019 22:00:00 0,4 -1,7 25 14 34 18 W 1020,7 0,0
20.01.2019 21:00:00 0,8 -1,6 28 15 35 19 W 1020,2 0,0
20.01.2019 20:00:00 1,2 -1,2 29 16 35 19 W 1019,9 0,0
20.01.2019 19:00:00 1,1 -1,3 27 15 34 18 W 1019,8 0,0
20.01.2019 18:00:00 1,3 -1,1 28 15 34 18 W 1019,5 0,0
20.01.2019 17:00:00 0,8 -1,6 24 13 30 16 W 1019,4 0,0
20.01.2019 16:00:00 0,8 -1,8 24 13 30 16 W 1019,2 0,0
20.01.2019 15:00:00 1,3 -1,9 23 13 27 15 W 1018,9 0,0
20.01.2019 14:00:00 1,8 -1,6 21 11 31 17 W 1018,9 0,0
20.01.2019 13:00:00 1,6 -1,6 23 12 31 17 W 1019,1 0,0
20.01.2019 12:00:00 1,6 -1,6 27 14 30 16 W 1018,9 0,0
20.01.2019 11:00:00 0,9 -1,5 26 14 30 16 W 1018,9 0,0
20.01.2019 10:00:00 0,9 -2,0 24 13 32 17 W 1018,7 0,0
20.01.2019 09:00:00 0,3 -1,8 22 12 32 17 W 1018,4 0,0
20.01.2019 08:00:00 0,7 -1,9 21 12 30 16 WSW 1017,8 0,0
20.01.2019 07:00:00 0,5 -2,2 22 12 30 16 W 1017,6 0,0
20.01.2019 06:00:00 0,5 -2,1 19 10 27 15 W 1017,8 0,0
20.01.2019 05:00:00 0,0 -2,2 19 10 27 15 W 1017,8 0,0
20.01.2019 04:00:00 -0,4 -2,6 19 10 27 15 W 1018,0 0,0
20.01.2019 03:00:00 -0,2 -2,3 20 11 30 16 W 1018,0 0,0
20.01.2019 02:00:00 0,0 -2,1 23 12 30 16 W 1018,0 0,0
20.01.2019 01:00:00 0,6 -2,0 22 12 29 16 WSW 1018,0 0,0
20.01.2019 00:00:00 0,5 -2,4 19 11 27 15 WSW 1018,3 0,0
19.01.2019 23:00:00 0,9 -2,0 18 10 24 13 WSW 1018,2 0,0
19.01.2019 22:00:00 1,0 -2,1 14 7 26 14 WSW 1018,3 0,0
19.01.2019 21:00:00 0,8 -1,9 14 8 27 15 W 1018,2 0,0
19.01.2019 20:00:00 0,9 -1,5 16 9 29 16 WSW 1018,2 0,0
19.01.2019 19:00:00 1,1 -1,5 18 10 29 16 WSW 1018,1 0,0
19.01.2019 18:00:00 1,4 -1,0 23 12 31 17 W 1018,1 0,0
19.01.2019 17:00:00 1,9 -0,7 23 13 32 17 W 1018,1 0,0
19.01.2019 16:00:00 1,9 -0,7 26 14 32 17 W 1018,1 0,0
19.01.2019 15:00:00 1,6 -0,5 24 13 33 18 W 1018,1 0,0
19.01.2019 14:00:00 1,5 -0,5 25 14 32 18 WSW 1018,5 0,0
19.01.2019 13:00:00 1,3 -0,6 27 15 36 19 WSW 1018,6 0,0
19.01.2019 12:00:00 1,5 -0,1 28 15 36 19 WSW 1018,7 0,0
19.01.2019 11:00:00 1,2 -0,6 27 15 32 18 WSW 1018,6 0,0
19.01.2019 10:00:00 2,3 -0,8 23 13 27 15 W 1018,2 0,0
19.01.2019 09:00:00 1,9 -0,7 23 13 27 15 W 1017,9 0,0
19.01.2019 08:00:00 1,7 -0,9 22 12 30 16 W 1017,4 0,0
19.01.2019 07:00:00 1,8 -0,6 24 13 31 17 W 1017,1 0,0
19.01.2019 06:00:00 1,8 -0,5 27 15 31 17 WNW 1017,0 0,0
19.01.2019 05:00:00 1,4 -1,2 26 14 31 17 W 1017,0 0,0
19.01.2019 04:00:00 1,3 -1,1 20 11 31 17 W 1017,0 0,0
19.01.2019 03:00:00 1,9 -0,5 22 12 31 17 WNW 1016,9 0,0
19.01.2019 02:00:00 1,7 -0,7 22 12 33 18 WNW 1016,8 0,0
19.01.2019 01:00:00 1,7 -1,0 27 15 37 20 W 1016,7 0,0
19.01.2019 00:00:00 2,1 -1,2 29 16 40 22 W 1016,2 0,0
18.01.2019 23:00:00 2,0 -0,9 32 18 43 23 W 1015,9 0,0
18.01.2019 22:00:00 2,3 -2,4 35 19 44 24 W 1015,7 0,0
18.01.2019 21:00:00 1,9 -3,2 32 17 37 20 W 1015,3 0,0
18.01.2019 20:00:00 1,5 -3,4 28 15 35 19 W 1015,0 0,0
18.01.2019 19:00:00 1,5 -3,2 24 13 32 18 W 1015,0 0,0
18.01.2019 18:00:00 1,9 -3,0 24 13 34 18 WNW 1014,7 0,0
18.01.2019 17:00:00 1,8 -2,7 24 13 34 18 WNW 1014,4 0,0
18.01.2019 16:00:00 1,8 -2,7 27 15 31 17 WNW 1014,1 0,0
18.01.2019 15:00:00 1,8 -2,7 24 13 29 16 WNW 1013,2 0,0
18.01.2019 14:00:00 1,8 -2,9 22 12 32 18 WNW 1013,1 0,0
18.01.2019 13:00:00 1,9 -2,8 25 13 38 20 W 1012,8 0,0
18.01.2019 12:00:00 2,1 -3,2 29 16 38 20 W 1012,7 0,0
18.01.2019 11:00:00 1,4 -3,1 29 16 34 19 W 1012,7 0,0
18.01.2019 10:00:00 1,5 -3,4 26 14 37 20 W 1012,2 0,0
18.01.2019 09:00:00 1,0 -2,9 28 15 37 20 W 1011,5 0,0
18.01.2019 08:00:00 0,6 -2,6 30 16 36 20 W 1010,8 0,0
18.01.2019 07:00:00 0,5 -3,1 24 13 35 19 WNW 1010,0 0,0
18.01.2019 06:00:00 0,5 -4,4 29 16 36 19 NW 1009,3 0,0
18.01.2019 05:00:00 -0,3 -4,0 26 14 42 23 NNW 1008,6 0,0
18.01.2019 04:00:00 -0,7 -4,4 30 16 42 23 NNW 1007,8 0,0
18.01.2019 03:00:00 -0,7 -4,6 32 17 44 24 NNW 1007,2 0,0
18.01.2019 02:00:00 -1,1 -5,5 31 17 54 29 N 1005,9 0,0
18.01.2019 01:00:00 -0,7 -5,7 33 18 54 29 NNE 1004,6 0,0
18.01.2019 00:00:00 -0,7 -5,7 38 21 51 28 N 1003,1 0,0
17.01.2019 23:00:00 -0,8 -5,4 39 21 53 29 N 1001,6 0,0
17.01.2019 22:00:00 -0,6 -5,0 39 21 57 31 N 1000,3 0,0
17.01.2019 21:00:00 -0,2 -4,6 41 22 57 31 N 998,8 0,0
17.01.2019 20:00:00 0,7 -3,4 40 22 50 27 N 997,2 0,0
17.01.2019 19:00:00 0,8 -2,9 37 20 49 26 NNW 995,7 0,0
17.01.2019 18:00:00 1,5 -1,9 38 21 48 26 NNW 994,3 0,0
17.01.2019 17:00:00 1,1 -0,7 25 13 49 26 NNW 993,1 1,2
17.01.2019 16:00:00 0,8 -1,3 34 19 50 27 N 991,8 1,0
17.01.2019 15:00:00 4,5 2,0 41 22 52 28 WSW 990,2 0,0
17.01.2019 14:00:00 4,6 2,1 40 22 52 28 WSW 990,3 0,0
17.01.2019 13:00:00 4,5 1,9 37 20 49 26 WSW 990,9 0,0
17.01.2019 12:00:00 4,9 1,9 37 20 46 25 WSW 991,2 0,0
17.01.2019 11:00:00 4,9 1,7 33 18 50 27 WSW 991,4 0,0
17.01.2019 10:00:00 4,5 1,4 33 18 50 27 WSW 991,3 0,0
17.01.2019 09:00:00 4,7 1,9 40 22 49 26 WSW 990,7 0,0
17.01.2019 08:00:00 4,4 1,6 36 19 48 26 WSW 990,0 0,0
17.01.2019 07:00:00 4,7 1,5 38 21 50 27 WSW 990,0 0,0
17.01.2019 06:00:00 4,8 1,8 39 21 50 27 W 989,8 0,0
17.01.2019 05:00:00 4,7 2,1 39 21 48 26 WSW 989,8 0,0
17.01.2019 04:00:00 4,5 2,4 29 16 60 33 WSW 989,9 0,0
17.01.2019 03:00:00 4,6 2,3 32 18 64 35 WSW 990,1 0,0
17.01.2019 02:00:00 4,8 2,8 49 26 64 35 WSW 990,0 0,0
17.01.2019 01:00:00 4,8 3,1 45 24 59 32 SW 990,7 0,0
17.01.2019 00:00:00 5,1 3,3 43 23 59 32 SW 991,4 0,0
16.01.2019 23:00:00 5,2 3,6 43 23 58 31 SW 992,3 0,0
16.01.2019 22:00:00 5,3 3,8 44 24 56 30 SW 993,1 0,0
16.01.2019 21:00:00 5,5 3,8 42 23 54 29 SW 993,7 0,0
16.01.2019 20:00:00 5,5 3,8 41 22 55 30 WSW 994,2 0,0
16.01.2019 19:00:00 5,9 4,1 45 24 54 29 WSW 994,7 0,0
16.01.2019 18:00:00 5,7 4,3 39 21 49 27 WSW 995,5 0,0
16.01.2019 17:00:00 5,6 4,2 36 19 43 23 WSW 996,2 0,0
16.01.2019 16:00:00 5,6 4,1 32 18 41 22 SW 996,9 0,0
16.01.2019 15:00:00 5,5 3,7 26 14 43 23 SW 997,5 0,0
16.01.2019 14:00:00 5,7 3,5 29 16 47 26 SW 998,1 0,0
16.01.2019 13:00:00 5,7 3,6 36 19 47 25 SW 998,6 0,0
16.01.2019 12:00:00 5,6 3,6 36 20 42 23 SW 999,2 0,0
16.01.2019 11:00:00 5,5 3,5 34 18 43 23 WSW 999,8 0,0
16.01.2019 10:00:00 5,3 3,3 35 19 45 24 WSW 1000,2 0,0
16.01.2019 09:00:00 - - - - 45 24 - - -
16.01.2019 08:00:00 5,3 3,1 31 17 37 20 WSW 999,9 0,0
16.01.2019 07:00:00 5,4 3,6 26 14 31 17 W 1000,3 0,0
16.01.2019 06:00:00 4,8 3,0 13 7 18 10 SW 1000,7 1,0
16.01.2019 05:00:00 4,4 2,1 10 5 31 17 WSW 1001,4 0,3
16.01.2019 04:00:00 4,2 2,1 10 5 46 25 W 1001,6 0,2
16.01.2019 03:00:00 4,9 2,1 29 15 46 25 WNW 1001,8 0,0
16.01.2019 02:00:00 5,4 2,4 31 17 46 25 WNW 1001,6 0,0
16.01.2019 01:00:00 5,6 2,4 33 18 44 24 WNW 1001,0 0,0
16.01.2019 00:00:00 5,4 2,7 31 17 45 24 W 1000,9 0,0
15.01.2019 23:00:00 5,5 2,7 37 20 51 28 W 1000,4 0,0
15.01.2019 22:00:00 5,5 2,8 37 20 54 29 WNW 1000,0 0,0
15.01.2019 21:00:00 5,7 2,2 40 22 55 30 WNW 999,6 0,0
15.01.2019 20:00:00 5,6 2,2 43 23 57 31 WNW 999,0 0,0
15.01.2019 19:00:00 5,6 2,2 42 23 57 31 WNW 998,5 0,0
15.01.2019 18:00:00 5,8 3,0 41 22 56 31 WNW 998,1 0,0
15.01.2019 17:00:00 6,2 3,7 45 24 56 31 WNW 997,8 0,0

tt = Température de l'air
td = dewpoint
ff = Vitesse du vent
fx = gusts
dd = Direction du vent
ppp = reduced air pressure
rr = Quantités de précipitations

stations d'obs. à proximité